sensor_id;sensor_type;location;lat;lon;timestamp;pressure;altitude;pressure_sealevel;temperature;humidity
22241;BME280;11289;52.524;13.694;2023-04-07T00:00:56;101373.44;;;3.03;60.31
22241;BME280;11289;52.524;13.694;2023-04-07T00:03:22;101385.00;;;3.05;60.64
22241;BME280;11289;52.524;13.694;2023-04-07T00:05:50;101355.50;;;2.90;60.15
22241;BME280;11289;52.524;13.694;2023-04-07T00:08:16;101373.16;;;3.00;60.42
22241;BME280;11289;52.524;13.694;2023-04-07T00:10:42;101372.53;;;2.92;60.26
22241;BME280;11289;52.524;13.694;2023-04-07T00:13:08;101370.31;;;2.89;60.62
22241;BME280;11289;52.524;13.694;2023-04-07T00:15:33;101362.34;;;2.88;60.48
22241;BME280;11289;52.524;13.694;2023-04-07T00:17:59;101365.34;;;2.86;60.95
22241;BME280;11289;52.524;13.694;2023-04-07T00:20:26;101369.19;;;2.85;60.91
22241;BME280;11289;52.524;13.694;2023-04-07T00:22:52;101353.44;;;2.75;60.98
22241;BME280;11289;52.524;13.694;2023-04-07T00:25:18;101361.75;;;2.81;60.63
22241;BME280;11289;52.524;13.694;2023-04-07T00:27:45;101357.03;;;2.76;60.96
22241;BME280;11289;52.524;13.694;2023-04-07T00:30:12;101357.03;;;2.76;60.87
22241;BME280;11289;52.524;13.694;2023-04-07T00:32:40;101349.31;;;2.73;60.79
22241;BME280;11289;52.524;13.694;2023-04-07T00:35:06;101353.16;;;2.72;60.98
22241;BME280;11289;52.524;13.694;2023-04-07T00:37:32;101333.28;;;2.59;60.99
22241;BME280;11289;52.524;13.694;2023-04-07T00:39:59;101333.53;;;2.58;61.07
22241;BME280;11289;52.524;13.694;2023-04-07T00:42:25;101349.28;;;2.68;61.44
22241;BME280;11289;52.524;13.694;2023-04-07T00:44:51;101345.94;;;2.66;61.28
22241;BME280;11289;52.524;13.694;2023-04-07T00:47:17;101342.09;;;2.61;61.40
22241;BME280;11289;52.524;13.694;2023-04-07T00:49:43;101350.88;;;2.64;61.41
22241;BME280;11289;52.524;13.694;2023-04-07T00:52:09;101345.91;;;2.60;61.16
22241;BME280;11289;52.524;13.694;2023-04-07T00:54:38;101314.44;;;2.41;61.01
22241;BME280;11289;52.524;13.694;2023-04-07T00:57:05;101316.94;;;2.42;60.95
22241;BME280;11289;52.524;13.694;2023-04-07T00:59:31;101311.69;;;2.36;60.85
22241;BME280;11289;52.524;13.694;2023-04-07T01:02:04;101325.75;;;2.44;61.11
22241;BME280;11289;52.524;13.694;2023-04-07T01:04:39;101328.22;;;2.46;61.71
22241;BME280;11289;52.524;13.694;2023-04-07T01:07:11;101334.78;;;2.45;61.26
22241;BME280;11289;52.524;13.694;2023-04-07T01:09:45;101332.03;;;2.45;61.43
22241;BME280;11289;52.524;13.694;2023-04-07T01:12:40;101323.72;;;2.35;61.53
22241;BME280;11289;52.524;13.694;2023-04-07T01:15:10;101329.47;;;2.33;62.02
22241;BME280;11289;52.524;13.694;2023-04-07T01:17:42;101317.56;;;2.22;61.70
22241;BME280;11289;52.524;13.694;2023-04-07T01:20:13;101323.34;;;2.26;62.28
22241;BME280;11289;52.524;13.694;2023-04-07T01:22:43;101319.47;;;2.22;62.20
22241;BME280;11289;52.524;13.694;2023-04-07T01:25:22;101321.38;;;2.21;62.23
22241;BME280;11289;52.524;13.694;2023-04-07T01:27:58;101331.84;;;2.24;62.11
22241;BME280;11289;52.524;13.694;2023-04-07T01:30:35;101330.16;;;2.23;62.27
22241;BME280;11289;52.524;13.694;2023-04-07T01:33:04;101313.16;;;2.21;61.90
22241;BME280;11289;52.524;13.694;2023-04-07T01:35:32;101316.16;;;2.20;62.10
22241;BME280;11289;52.524;13.694;2023-04-07T01:37:59;101317.84;;;2.21;61.95
22241;BME280;11289;52.524;13.694;2023-04-07T01:40:26;101310.63;;;2.15;61.99
22241;BME280;11289;52.524;13.694;2023-04-07T01:42:55;101299.38;;;2.11;62.17
22241;BME280;11289;52.524;13.694;2023-04-07T01:45:22;101307.63;;;2.16;62.06
22241;BME280;11289;52.524;13.694;2023-04-07T01:47:49;101310.34;;;2.16;62.12
22241;BME280;11289;52.524;13.694;2023-04-07T01:50:16;101302.72;;;2.18;62.35
22241;BME280;11289;52.524;13.694;2023-04-07T01:52:42;101305.41;;;2.13;61.97
22241;BME280;11289;52.524;13.694;2023-04-07T01:55:10;101314.94;;;2.11;62.44
22241;BME280;11289;52.524;13.694;2023-04-07T01:57:36;101298.22;;;2.07;62.11
22241;BME280;11289;52.524;13.694;2023-04-07T02:00:02;101314.47;;;2.14;62.61
22241;BME280;11289;52.524;13.694;2023-04-07T02:02:29;101297.69;;;2.10;62.75
22241;BME280;11289;52.524;13.694;2023-04-07T02:04:57;101309.81;;;2.14;62.35
22241;BME280;11289;52.524;13.694;2023-04-07T02:07:45;101302.66;;;2.13;62.09
22241;BME280;11289;52.524;13.694;2023-04-07T02:10:15;101302.66;;;2.13;62.15
22241;BME280;11289;52.524;13.694;2023-04-07T02:12:44;101304.84;;;2.11;62.07
22241;BME280;11289;52.524;13.694;2023-04-07T02:15:12;101294.16;;;2.09;62.62
22241;BME280;11289;52.524;13.694;2023-04-07T02:17:43;101298.03;;;2.14;62.25
22241;BME280;11289;52.524;13.694;2023-04-07T02:20:11;101288.66;;;2.09;62.43
22241;BME280;11289;52.524;13.694;2023-04-07T02:22:38;101285.94;;;2.09;62.55
22241;BME280;11289;52.524;13.694;2023-04-07T02:25:27;101291.97;;;2.12;62.59
22241;BME280;11289;52.524;13.694;2023-04-07T02:27:55;101293.03;;;2.11;62.55
22241;BME280;11289;52.524;13.694;2023-04-07T02:30:22;101287.25;;;2.07;62.34
22241;BME280;11289;52.524;13.694;2023-04-07T02:32:48;101285.34;;;2.07;62.71
22241;BME280;11289;52.524;13.694;2023-04-07T02:35:14;101288.41;;;2.11;62.23
22241;BME280;11289;52.524;13.694;2023-04-07T02:37:42;101288.06;;;2.07;62.46
22241;BME280;11289;52.524;13.694;2023-04-07T02:40:08;101281.97;;;2.00;62.54
22241;BME280;11289;52.524;13.694;2023-04-07T02:42:35;101287.25;;;2.07;62.54
22241;BME280;11289;52.524;13.694;2023-04-07T02:45:02;101267.38;;;1.95;62.97
22241;BME280;11289;52.524;13.694;2023-04-07T02:47:28;101260.22;;;1.88;63.17
22241;BME280;11289;52.524;13.694;2023-04-07T02:49:54;101290.53;;;2.04;63.06
22241;BME280;11289;52.524;13.694;2023-04-07T02:52:20;101278.41;;;2.00;63.09
22241;BME280;11289;52.524;13.694;2023-04-07T02:54:46;101293.56;;;2.07;63.43
22241;BME280;11289;52.524;13.694;2023-04-07T02:57:12;101280.13;;;2.06;63.63
22241;BME280;11289;52.524;13.694;2023-04-07T02:59:39;101287.81;;;2.09;63.71
22241;BME280;11289;52.524;13.694;2023-04-07T03:02:06;101277.44;;;2.11;63.38
22241;BME280;11289;52.524;13.694;2023-04-07T03:04:32;101281.34;;;2.15;63.41
22241;BME280;11289;52.524;13.694;2023-04-07T03:06:58;101264.81;;;2.10;63.34
22241;BME280;11289;52.524;13.694;2023-04-07T03:09:24;101280.81;;;2.18;63.54
22241;BME280;11289;52.524;13.694;2023-04-07T03:11:50;101281.38;;;2.20;63.06
22241;BME280;11289;52.524;13.694;2023-04-07T03:14:16;101257.94;;;2.07;63.08
22241;BME280;11289;52.524;13.694;2023-04-07T03:16:42;101273.72;;;2.22;63.13
22241;BME280;11289;52.524;13.694;2023-04-07T03:19:08;101277.03;;;2.24;63.30
22241;BME280;11289;52.524;13.694;2023-04-07T03:21:38;101270.41;;;2.20;63.78
22241;BME280;11289;52.524;13.694;2023-04-07T03:24:05;101267.25;;;2.06;63.93
22241;BME280;11289;52.524;13.694;2023-04-07T03:26:31;101262.25;;;1.98;64.17
22241;BME280;11289;52.524;13.694;2023-04-07T03:28:57;101265.25;;;1.97;64.50
22241;BME280;11289;52.524;13.694;2023-04-07T03:31:23;101263.56;;;1.96;64.37
22241;BME280;11289;52.524;13.694;2023-04-07T03:33:50;101268.28;;;2.00;64.30
22241;BME280;11289;52.524;13.694;2023-04-07T03:36:16;101264.72;;;2.00;64.33
22241;BME280;11289;52.524;13.694;2023-04-07T03:38:45;101256.25;;;2.01;64.43
22241;BME280;11289;52.524;13.694;2023-04-07T03:41:12;101259.78;;;2.02;64.07
22241;BME280;11289;52.524;13.694;2023-04-07T03:43:38;101244.34;;;1.90;64.21
22241;BME280;11289;52.524;13.694;2023-04-07T03:46:04;101255.09;;;1.97;64.44
22241;BME280;11289;52.524;13.694;2023-04-07T03:48:30;101254.28;;;1.97;64.82
22241;BME280;11289;52.524;13.694;2023-04-07T03:50:56;101256.25;;;2.01;64.56
22241;BME280;11289;52.524;13.694;2023-04-07T03:53:22;101251.22;;;1.93;64.77
22241;BME280;11289;52.524;13.694;2023-04-07T03:55:48;101238.78;;;1.80;64.79
22241;BME280;11289;52.524;13.694;2023-04-07T03:58:14;101250.91;;;1.89;64.80
22241;BME280;11289;52.524;13.694;2023-04-07T04:00:40;101256.56;;;1.83;65.28
22241;BME280;11289;52.524;13.694;2023-04-07T04:03:06;101239.66;;;1.64;65.31
22241;BME280;11289;52.524;13.694;2023-04-07T04:05:32;101244.06;;;1.65;65.25
22241;BME280;11289;52.524;13.694;2023-04-07T04:07:58;101264.78;;;1.83;65.47
22241;BME280;11289;52.524;13.694;2023-04-07T04:10:24;101249.72;;;1.80;65.31
22241;BME280;11289;52.524;13.694;2023-04-07T04:12:50;101269.00;;;1.90;65.05
22241;BME280;11289;52.524;13.694;2023-04-07T04:15:16;101257.34;;;1.78;65.22
22241;BME280;11289;52.524;13.694;2023-04-07T04:17:42;101248.56;;;1.76;65.43
22241;BME280;11289;52.524;13.694;2023-04-07T04:20:08;101249.03;;;1.68;65.72
22241;BME280;11289;52.524;13.694;2023-04-07T04:22:35;101249.91;;;1.73;65.57
22241;BME280;11289;52.524;13.694;2023-04-07T04:25:01;101257.59;;;1.77;64.98
22241;BME280;11289;52.524;13.694;2023-04-07T04:27:27;101247.53;;;1.82;64.72
22241;BME280;11289;52.524;13.694;2023-04-07T04:29:53;101249.22;;;1.83;64.73
22241;BME280;11289;52.524;13.694;2023-04-07T04:32:19;101261.78;;;1.84;65.33
22241;BME280;11289;52.524;13.694;2023-04-07T04:34:45;101261.53;;;1.86;65.31
22241;BME280;11289;52.524;13.694;2023-04-07T04:37:11;101250.81;;;1.79;65.38
22241;BME280;11289;52.524;13.694;2023-04-07T04:39:37;101245.31;;;1.79;65.26
22241;BME280;11289;52.524;13.694;2023-04-07T04:42:04;101253.59;;;1.84;64.96
22241;BME280;11289;52.524;13.694;2023-04-07T04:44:30;101256.38;;;1.89;65.39
22241;BME280;11289;52.524;13.694;2023-04-07T04:46:56;101267.38;;;1.95;65.13
22241;BME280;11289;52.524;13.694;2023-04-07T04:49:22;101263.56;;;1.96;65.23
22241;BME280;11289;52.524;13.694;2023-04-07T04:51:48;101266.63;;;1.99;65.51
22241;BME280;11289;52.524;13.694;2023-04-07T04:54:15;101268.00;;;2.02;65.13
22241;BME280;11289;52.524;13.694;2023-04-07T04:56:41;101265.28;;;2.02;65.13
22241;BME280;11289;52.524;13.694;2023-04-07T04:59:07;101260.69;;;2.07;65.16
22241;BME280;11289;52.524;13.694;2023-04-07T05:01:33;101265.63;;;2.11;65.06
22241;BME280;11289;52.524;13.694;2023-04-07T05:03:59;101259.94;;;2.12;64.68
22241;BME280;11289;52.524;13.694;2023-04-07T05:06:26;101267.09;;;2.18;65.00
22241;BME280;11289;52.524;13.694;2023-04-07T05:08:52;101275.09;;;2.25;64.83
22241;BME280;11289;52.524;13.694;2023-04-07T05:11:18;101274.34;;;2.30;65.00
22241;BME280;11289;52.524;13.694;2023-04-07T05:13:44;101267.25;;;2.34;64.99
22241;BME280;11289;52.524;13.694;2023-04-07T05:16:10;101270.84;;;2.39;65.12
22241;BME280;11289;52.524;13.694;2023-04-07T05:18:36;101238.13;;;2.28;64.99
22241;BME280;11289;52.524;13.694;2023-04-07T05:21:03;101252.72;;;2.33;65.23
22241;BME280;11289;52.524;13.694;2023-04-07T05:24:01;101261.91;;;2.49;65.05
22241;BME280;11289;52.524;13.694;2023-04-07T05:26:35;101265.22;;;2.51;65.14
22241;BME280;11289;52.524;13.694;2023-04-07T05:29:03;101244.91;;;2.47;65.10
22241;BME280;11289;52.524;13.694;2023-04-07T05:31:29;101265.25;;;2.56;64.93
22241;BME280;11289;52.524;13.694;2023-04-07T05:33:56;101257.56;;;2.53;64.80
22241;BME280;11289;52.524;13.694;2023-04-07T05:36:22;101260.84;;;2.55;65.61
22241;BME280;11289;52.524;13.694;2023-04-07T05:38:48;101235.81;;;2.41;65.30
22241;BME280;11289;52.524;13.694;2023-04-07T05:41:14;101262.53;;;2.56;65.76
22241;BME280;11289;52.524;13.694;2023-04-07T05:43:40;101258.63;;;2.47;66.20
22241;BME280;11289;52.524;13.694;2023-04-07T05:46:06;101271.31;;;2.58;66.17
22241;BME280;11289;52.524;13.694;2023-04-07T05:48:32;101274.81;;;2.54;66.56
22241;BME280;11289;52.524;13.694;2023-04-07T05:50:58;101270.28;;;2.65;66.31
22241;BME280;11289;52.524;13.694;2023-04-07T05:53:24;101283.19;;;2.69;66.60
22241;BME280;11289;52.524;13.694;2023-04-07T05:55:50;101270.31;;;2.70;66.66
22241;BME280;11289;52.524;13.694;2023-04-07T05:58:16;101283.19;;;2.69;66.22
22241;BME280;11289;52.524;13.694;2023-04-07T06:00:42;101280.75;;;2.73;66.50
22241;BME280;11289;52.524;13.694;2023-04-07T06:03:08;101261.47;;;2.63;66.71
22241;BME280;11289;52.524;13.694;2023-04-07T06:05:34;101282.47;;;2.79;66.74
22241;BME280;11289;52.524;13.694;2023-04-07T06:08:00;101280.78;;;2.78;66.80
22241;BME280;11289;52.524;13.694;2023-04-07T06:10:26;101260.72;;;2.72;66.55
22241;BME280;11289;52.524;13.694;2023-04-07T06:12:52;101264.91;;;2.80;66.62
22241;BME280;11289;52.524;13.694;2023-04-07T06:15:18;101260.28;;;2.86;66.48
22241;BME280;11289;52.524;13.694;2023-04-07T06:17:44;101268.84;;;2.94;66.40
22241;BME280;11289;52.524;13.694;2023-04-07T06:20:10;101287.63;;;3.13;66.59
22241;BME280;11289;52.524;13.694;2023-04-07T06:22:38;101281.59;;;3.11;66.51
22241;BME280;11289;52.524;13.694;2023-04-07T06:25:04;101290.44;;;3.18;66.65
22241;BME280;11289;52.524;13.694;2023-04-07T06:27:31;101278.00;;;3.10;66.66
22241;BME280;11289;52.524;13.694;2023-04-07T06:29:58;101280.00;;;3.20;66.45
22241;BME280;11289;52.524;13.694;2023-04-07T06:32:24;101287.75;;;3.34;66.52
22241;BME280;11289;52.524;13.694;2023-04-07T06:34:51;101276.81;;;3.39;66.51
22241;BME280;11289;52.524;13.694;2023-04-07T06:37:17;101297.22;;;3.53;65.99
22241;BME280;11289;52.524;13.694;2023-04-07T06:39:43;101298.63;;;3.61;65.82
22241;BME280;11289;52.524;13.694;2023-04-07T06:42:55;101300.59;;;3.76;65.56
22241;BME280;11289;52.524;13.694;2023-04-07T06:45:44;101276.41;;;3.68;65.55
22241;BME280;11289;52.524;13.694;2023-04-07T06:48:11;101265.97;;;3.70;65.17
22241;BME280;11289;52.524;13.694;2023-04-07T06:50:37;101289.66;;;3.86;65.59
22241;BME280;11289;52.524;13.694;2023-04-07T06:53:03;101277.28;;;3.89;64.76
22241;BME280;11289;52.524;13.694;2023-04-07T06:55:30;101293.00;;;3.98;64.87
22241;BME280;11289;52.524;13.694;2023-04-07T06:57:56;101293.00;;;3.98;64.69
22241;BME280;11289;52.524;13.694;2023-04-07T07:00:22;101302.94;;;4.15;64.99
22241;BME280;11289;52.524;13.694;2023-04-07T07:02:48;101302.69;;;4.22;64.14
22241;BME280;11289;52.524;13.694;2023-04-07T07:05:15;101270.50;;;4.12;63.61
22241;BME280;11289;52.524;13.694;2023-04-07T07:07:45;101283.44;;;4.22;63.51
22241;BME280;11289;52.524;13.694;2023-04-07T07:10:15;101294.47;;;4.42;63.05
22241;BME280;11289;52.524;13.694;2023-04-07T07:12:41;101291.97;;;4.46;62.13
22241;BME280;11289;52.524;13.694;2023-04-07T07:15:12;101285.66;;;4.45;62.28
22241;BME280;11289;52.524;13.694;2023-04-07T07:17:41;101278.50;;;4.44;62.68
22241;BME280;11289;52.524;13.694;2023-04-07T07:20:07;101297.50;;;4.61;62.25
22241;BME280;11289;52.524;13.694;2023-04-07T07:22:34;101302.47;;;4.69;61.22
22241;BME280;11289;52.524;13.694;2023-04-07T07:25:00;101306.34;;;4.74;60.59
22241;BME280;11289;52.524;13.694;2023-04-07T07:27:26;101281.59;;;4.63;60.49
22241;BME280;11289;52.524;13.694;2023-04-07T07:29:52;101307.69;;;4.86;60.59
22241;BME280;11289;52.524;13.694;2023-04-07T07:32:24;101300.25;;;4.92;60.07
22241;BME280;11289;52.524;13.694;2023-04-07T07:34:53;101313.22;;;4.97;59.86
22241;BME280;11289;52.524;13.694;2023-04-07T07:37:19;101291.72;;;4.83;59.46
22241;BME280;11289;52.524;13.694;2023-04-07T07:39:45;101297.25;;;4.88;59.99
22241;BME280;11289;52.524;13.694;2023-04-07T07:42:13;101291.19;;;4.97;59.38
22241;BME280;11289;52.524;13.694;2023-04-07T07:44:39;101303.00;;;5.08;59.20
22241;BME280;11289;52.524;13.694;2023-04-07T07:47:05;101295.84;;;5.06;59.76
22241;BME280;11289;52.524;13.694;2023-04-07T07:49:31;101300.81;;;5.15;59.99
22241;BME280;11289;52.524;13.694;2023-04-07T07:51:57;101309.59;;;5.37;60.07
22241;BME280;11289;52.524;13.694;2023-04-07T07:54:24;101319.41;;;5.59;59.09
22241;BME280;11289;52.524;13.694;2023-04-07T07:56:50;101320.47;;;5.73;58.58
22241;BME280;11289;52.524;13.694;2023-04-07T07:59:17;101309.47;;;5.73;58.64
22241;BME280;11289;52.524;13.694;2023-04-07T08:01:43;101311.06;;;5.90;58.16
22241;BME280;11289;52.524;13.694;2023-04-07T08:04:09;101312.41;;;6.03;57.59
22241;BME280;11289;52.524;13.694;2023-04-07T08:06:35;101302.78;;;6.00;56.41
22241;BME280;11289;52.524;13.694;2023-04-07T08:09:02;101320.97;;;5.96;54.87
22241;BME280;11289;52.524;13.694;2023-04-07T08:11:28;101309.13;;;5.90;56.05
22241;BME280;11289;52.524;13.694;2023-04-07T08:13:54;101308.84;;;5.97;55.31
22241;BME280;11289;52.524;13.694;2023-04-07T08:16:20;101320.38;;;6.09;54.47
22241;BME280;11289;52.524;13.694;2023-04-07T08:18:47;101315.41;;;6.06;53.94
22241;BME280;11289;52.524;13.694;2023-04-07T08:21:12;101325.88;;;6.09;53.73
22241;BME280;11289;52.524;13.694;2023-04-07T08:23:38;101313.81;;;5.90;52.04
22241;BME280;11289;52.524;13.694;2023-04-07T08:26:04;101326.19;;;6.03;53.38
22241;BME280;11289;52.524;13.694;2023-04-07T08:28:30;101319.00;;;5.97;52.41
22241;BME280;11289;52.524;13.694;2023-04-07T08:30:58;101329.22;;;5.91;52.23
22241;BME280;11289;52.524;13.694;2023-04-07T08:33:25;101319.03;;;5.91;52.28
22241;BME280;11289;52.524;13.694;2023-04-07T08:35:51;101332.25;;;5.95;50.91
22241;BME280;11289;52.524;13.694;2023-04-07T08:38:17;101334.25;;;5.79;51.29
22241;BME280;11289;52.524;13.694;2023-04-07T08:40:43;101331.22;;;5.75;52.14
22241;BME280;11289;52.524;13.694;2023-04-07T08:43:09;101327.66;;;5.74;52.25
22241;BME280;11289;52.524;13.694;2023-04-07T08:45:39;101348.31;;;5.77;52.30
22241;BME280;11289;52.524;13.694;2023-04-07T08:48:15;101325.22;;;5.68;52.25
22241;BME280;11289;52.524;13.694;2023-04-07T08:50:44;101320.81;;;5.51;51.60
22241;BME280;11289;52.524;13.694;2023-04-07T08:53:12;101325.53;;;5.51;52.66
22241;BME280;11289;52.524;13.694;2023-04-07T08:55:40;101343.69;;;5.62;52.61
22241;BME280;11289;52.524;13.694;2023-04-07T08:58:09;101339.53;;;5.65;52.44
22241;BME280;11289;52.524;13.694;2023-04-07T09:01:02;101356.09;;;5.60;52.14
22241;BME280;11289;52.524;13.694;2023-04-07T09:03:29;101345.06;;;5.60;52.81
22241;BME280;11289;52.524;13.694;2023-04-07T09:05:58;101358.56;;;5.61;50.69
22241;BME280;11289;52.524;13.694;2023-04-07T09:08:25;101334.88;;;5.55;51.64
22241;BME280;11289;52.524;13.694;2023-04-07T09:10:51;101349.19;;;5.62;50.62
22241;BME280;11289;52.524;13.694;2023-04-07T09:13:17;101355.25;;;5.54;51.88
22241;BME280;11289;52.524;13.694;2023-04-07T09:15:43;101356.91;;;5.55;51.40
22241;BME280;11289;52.524;13.694;2023-04-07T09:18:09;101358.56;;;5.61;50.23
22241;BME280;11289;52.524;13.694;2023-04-07T09:20:55;101356.06;;;5.70;51.18
22241;BME280;11289;52.524;13.694;2023-04-07T09:23:42;101346.94;;;5.74;49.99
22241;BME280;11289;52.524;13.694;2023-04-07T09:28:59;101355.22;;;5.64;50.31
22241;BME280;11289;52.524;13.694;2023-04-07T09:31:50;101356.88;;;5.70;50.70
22241;BME280;11289;52.524;13.694;2023-04-07T09:34:28;101354.94;;;5.76;50.07
22241;BME280;11289;52.524;13.694;2023-04-07T09:36:55;101356.88;;;5.75;50.16
22241;BME280;11289;52.524;13.694;2023-04-07T09:39:22;101357.97;;;5.80;50.03
22241;BME280;11289;52.524;13.694;2023-04-07T09:41:49;101353.00;;;5.77;49.67
22241;BME280;11289;52.524;13.694;2023-04-07T09:44:15;101364.03;;;5.77;50.24
22241;BME280;11289;52.524;13.694;2023-04-07T09:47:07;101359.63;;;5.75;50.65
22241;BME280;11289;52.524;13.694;2023-04-07T09:49:47;101364.28;;;5.85;50.81
22241;BME280;11289;52.524;13.694;2023-04-07T09:52:14;101351.31;;;5.81;50.86
22241;BME280;11289;52.524;13.694;2023-04-07T09:54:40;101359.84;;;5.95;51.02
22241;BME280;11289;52.524;13.694;2023-04-07T09:57:08;101361.75;;;5.99;51.55
22241;BME280;11289;52.524;13.694;2023-04-07T09:59:39;101356.53;;;6.03;51.46
22241;BME280;11289;52.524;13.694;2023-04-07T10:02:07;101367.50;;;6.13;51.38
22241;BME280;11289;52.524;13.694;2023-04-07T10:04:33;101361.44;;;6.11;51.08
22241;BME280;11289;52.524;13.694;2023-04-07T10:06:59;101364.53;;;5.99;51.90
22241;BME280;11289;52.524;13.694;2023-04-07T10:09:26;101370.03;;;6.04;52.11
22241;BME280;11289;52.524;13.694;2023-04-07T10:11:54;101366.44;;;6.04;52.76
22241;BME280;11289;52.524;13.694;2023-04-07T10:14:25;101367.50;;;6.13;52.13
22241;BME280;11289;52.524;13.694;2023-04-07T10:16:52;101355.63;;;6.18;52.29
22241;BME280;11289;52.524;13.694;2023-04-07T10:19:18;101352.06;;;6.17;53.05
22241;BME280;11289;52.524;13.694;2023-04-07T10:21:50;101361.66;;;6.20;53.47
22241;BME280;11289;52.524;13.694;2023-04-07T10:26:57;101366.63;;;6.23;54.16
22241;BME280;11289;52.524;13.694;2023-04-07T10:29:24;101367.72;;;6.27;55.04
22241;BME280;11289;52.524;13.694;2023-04-07T10:31:51;101363.97;;;5.92;55.44
22241;BME280;11289;52.524;13.694;2023-04-07T10:37:29;101365.63;;;5.93;59.25
22241;BME280;11289;52.524;13.694;2023-04-07T10:40:27;101360.63;;;6.05;61.00
22241;BME280;11289;52.524;13.694;2023-04-07T10:42:54;101352.34;;;6.10;62.05
22241;BME280;11289;52.524;13.694;2023-04-07T10:48:19;101353.44;;;6.09;63.98
22241;BME280;11289;52.524;13.694;2023-04-07T10:50:46;101354.53;;;6.14;65.00
22241;BME280;11289;52.524;13.694;2023-04-07T10:53:32;101359.81;;;6.10;66.26
22241;BME280;11289;52.524;13.694;2023-04-07T10:55:59;101366.66;;;6.13;67.34
22241;BME280;11289;52.524;13.694;2023-04-07T10:58:29;101354.31;;;6.00;68.03
22241;BME280;11289;52.524;13.694;2023-04-07T11:03:25;101357.88;;;6.05;69.24
22241;BME280;11289;52.524;13.694;2023-04-07T11:05:51;101350.75;;;5.94;70.09
22241;BME280;11289;52.524;13.694;2023-04-07T11:08:36;101358.47;;;5.97;71.10
22241;BME280;11289;52.524;13.694;2023-04-07T11:11:03;101360.13;;;5.88;70.38
22241;BME280;11289;52.524;13.694;2023-04-07T11:13:49;101362.38;;;5.70;72.04
22241;BME280;11289;52.524;13.694;2023-04-07T11:16:19;101357.47;;;5.62;73.17
22241;BME280;11289;52.524;13.694;2023-04-07T11:18:59;101367.13;;;5.49;74.64
22241;BME280;11289;52.524;13.694;2023-04-07T11:21:24;101347.56;;;5.35;74.66
22241;BME280;11289;52.524;13.694;2023-04-07T11:23:50;101349.81;;;5.23;75.36
22241;BME280;11289;52.524;13.694;2023-04-07T11:26:16;101356.66;;;5.41;75.86
22241;BME280;11289;52.524;13.694;2023-04-07T11:31:14;101345.06;;;5.54;75.66
22241;BME280;11289;52.524;13.694;2023-04-07T11:33:51;101351.13;;;5.56;75.50
22241;BME280;11289;52.524;13.694;2023-04-07T11:36:25;101358.28;;;5.47;75.74
22241;BME280;11289;52.524;13.694;2023-04-07T11:38:53;101349.50;;;5.30;76.10
22241;BME280;11289;52.524;13.694;2023-04-07T11:41:20;101360.81;;;5.28;76.76
22241;BME280;11289;52.524;13.694;2023-04-07T11:43:46;101350.63;;;5.18;76.03
22241;BME280;11289;52.524;13.694;2023-04-07T11:46:16;101345.41;;;5.27;76.45
22241;BME280;11289;52.524;13.694;2023-04-07T11:48:44;101351.44;;;5.34;76.61
22241;BME280;11289;52.524;13.694;2023-04-07T11:51:20;101348.97;;;5.38;77.19
22241;BME280;11289;52.524;13.694;2023-04-07T11:53:54;101346.47;;;5.41;77.01
22241;BME280;11289;52.524;13.694;2023-04-07T11:56:21;101343.16;;;5.50;77.37
22241;BME280;11289;52.524;13.694;2023-04-07T11:58:52;101343.16;;;5.50;76.55
22241;BME280;11289;52.524;13.694;2023-04-07T12:01:19;101339.53;;;5.54;76.47
22241;BME280;11289;52.524;13.694;2023-04-07T12:03:57;101347.25;;;5.63;76.90
22241;BME280;11289;52.524;13.694;2023-04-07T12:06:34;101347.25;;;5.63;77.39
22241;BME280;11289;52.524;13.694;2023-04-07T12:09:01;101343.66;;;5.67;77.06
22241;BME280;11289;52.524;13.694;2023-04-07T12:11:28;101346.41;;;5.72;77.38
22241;BME280;11289;52.524;13.694;2023-04-07T12:13:54;101343.66;;;5.72;77.02
22241;BME280;11289;52.524;13.694;2023-04-07T12:16:22;101343.13;;;5.60;76.23
22241;BME280;11289;52.524;13.694;2023-04-07T12:18:48;101335.16;;;5.48;77.46
22241;BME280;11289;52.524;13.694;2023-04-07T12:21:17;101345.09;;;5.49;77.63
22241;BME280;11289;52.524;13.694;2023-04-07T12:23:43;101334.03;;;5.54;77.20
22241;BME280;11289;52.524;13.694;2023-04-07T12:26:09;101333.72;;;5.71;78.38
22241;BME280;11289;52.524;13.694;2023-04-07T12:28:37;101344.09;;;5.95;77.36
22241;BME280;11289;52.524;13.694;2023-04-07T12:31:03;101330.41;;;5.80;76.83
22241;BME280;11289;52.524;13.694;2023-04-07T12:33:30;101341.94;;;5.87;76.25
22241;BME280;11289;52.524;13.694;2023-04-07T12:35:56;101340.53;;;5.89;76.55
22241;BME280;11289;52.524;13.694;2023-04-07T12:38:23;101335.28;;;6.08;76.73
22241;BME280;11289;52.524;13.694;2023-04-07T12:40:49;101316.50;;;6.10;75.80
22241;BME280;11289;52.524;13.694;2023-04-07T12:43:16;101317.03;;;6.13;74.63
22241;BME280;11289;52.524;13.694;2023-04-07T12:45:42;101330.31;;;6.05;74.42
22241;BME280;11289;52.524;13.694;2023-04-07T12:48:08;101334.50;;;5.92;75.01
22241;BME280;11289;52.524;13.694;2023-04-07T12:50:35;101341.38;;;5.85;75.09
22241;BME280;11289;52.524;13.694;2023-04-07T12:53:01;101314.97;;;5.79;75.04
22241;BME280;11289;52.524;13.694;2023-04-07T12:55:31;101323.22;;;5.79;75.39
22241;BME280;11289;52.524;13.694;2023-04-07T12:57:59;101318.53;;;5.79;76.17
22241;BME280;11289;52.524;13.694;2023-04-07T13:00:25;101332.53;;;6.03;76.41
22241;BME280;11289;52.524;13.694;2023-04-07T13:02:51;101333.56;;;6.18;75.69
22241;BME280;11289;52.524;13.694;2023-04-07T13:05:17;101336.63;;;6.11;75.01
22241;BME280;11289;52.524;13.694;2023-04-07T13:07:43;101338.84;;;6.09;74.18
22241;BME280;11289;52.524;13.694;2023-04-07T13:10:09;101334.72;;;5.96;75.31
22241;BME280;11289;52.524;13.694;2023-04-07T13:12:36;101333.63;;;6.02;75.38